Terminal Aerodrome Forecast
Issued by NWS

Home | Current Version | Previous Version | Text Only | Print | Product List | Glossary Off
Versions: 1 2 3 4 5 6 7 8 9 10 11 12 13 14 15 16 17 18 19 20 21 22 23 24 25 26 27

176
FTUS43 KLOT 301514 AAA
TAFDPA
TAF AMD
KDPA 301514Z 3015/0112 24010KT P6SM FEW030
     FM301630 24013G21KT P6SM OVC020
     FM010000 24013G20KT P6SM VCSH OVC020
     FM010200 25013G22KT P6SM -SHSN OVC015=

USA.gov is the U.S. government's official web portal to all federal, state and local government web resources and services.